Armavir, Russia

10:14 AM MSK on July 31, 2014 (GMT +0400)
Shpakovskoye (URMT) Elev 1483 ft | 45.12 °N, 42.08 °E | Change Station

Current weather conditions updated 14 minutes ago

Clear
Clear
73 °F
Feels Like 73 °F
N
22
Wind Variable Wind from ESE
Gusts 31 mph

Today is forecast to be Warmer than yesterday.

Today
High -- | Low -- °F
--% Chance of Precip.
Yesterday
High -- | Low -- °F
Precip. -- in
5:59 AM 8:43 PM
Waxing Crescent, 16% visible
Pressure 29.95 in
Visibility -9999.0 miles
Clouds
Dew Point 45 °F
Humidity 36%
Rainfall 0.00 in
Snow Depth Not available.
UV Not available.
Pollen Not available.
Air Quality Not available.
Flu Activity Not available.
METAR URMT 310600Z 11010G14MPS CAVOK 23/07 Q1014 NOSIG RMK QFE721 SC07

More Conditions Fewer Conditions

Pressure 29.95 in
Visibility -9999.0 miles
Clouds
Dew Point 45 °F
Humidity 36%
Rainfall 0.00 in
Snow Depth Not available.
UV Not available.
Pollen Not available.
Air Quality Not available.
Flu Activity Not available.
METAR URMT 310600Z 11010G14MPS CAVOK 23/07 Q1014 NOSIG RMK QFE721 SC07

More Conditions Fewer Conditions

10-Day Weather Forecast

Almanac

Astronomy

Jul. 31, 2014 Rise Set
Actual Time 5:59 AM MSK 8:43 PM MSK
Civil Twilight 5:25 AM MSK 9:17 PM MSK
Nautical Twilight 4:42 AM MSK 10:00 PM MSK
Astronomical Twilight 3:52 AM MSK 10:49 PM MSK
Moon 10:19 AM MSK 10:31 PM MSK
Length of Visible Light 15h 51m
Length of Day
14h 44m
Tomorrow will be 2m 23s shorter.
Waxing Crescent, 16% of the Moon is Illuminated
Today
Waxing Crescent
Aug 3
First Quarter
Aug 10
Full
Aug 17
Last Quarter
Aug 25
New

Yesterday's Extremes

Country Highs Country Lows

Community

WunderPhotos

Upload Photos

1,739,251 photos uploaded!

Nearby

Snow Depth

Not available.

Earthquake Activity

City Distance Mag. Time & Date
No recent earthquake activity has been reported nearby.
Minimum magnitude displayed is 2.5.

Coastal Water Temperatures

Place Temperature
No Stations Reporting

Nearby Weather Stations

There are no personal weather stations in this area.